Terminal Aerodrome Forecast
Issued by NWS

Home | Current Version | Previous Version | Text Only | Print | Product List | Glossary On
Versions: 1 2 3 4 5 6 7 8 9 10 11 12 13 14 15 16
000
FTUS43 KIWX 281100
TAFSBN
TAF
KSBN 281120Z 2812/2912 05004KT P6SM SCT100 BKN250
     FM281400 08006KT P6SM FEW050 BKN250
     FM290100 11006KT P6SM SCT070 OVC150=

USA.gov is the U.S. government's official web portal to all federal, state and local government web resources and services.